Terminal Aerodrome Forecast
Issued by NWS

Home | Current Version | Previous Version | Text Only | Print | Product List | Glossary On
Versions: 1 2 3 4 5 6 7 8 9 10 11 12 13 14 15 16 17 18 19 20
972
FTUS45 KABQ 172345
TAFLVS
TAF
KLVS 172345Z 1800/1824 16011KT P6SM BKN060
     FM180600 13006KT P6SM SCT009 OVC040
     FM180900 35007KT 2SM BR OVC009
      TEMPO 1810/1813 3/4SM BR OVC005
     FM181400 35007KT P6SM SCT050
     FM182100 24013KT P6SM FEW250=

USA.gov is the U.S. government's official web portal to all federal, state and local government web resources and services.